Amarillo, TX (79174)

5:09 AM CDT on October 02, 2014 (GMT -0500)
Oliver-Eakle | Change Station
CLOSE
Current Station
Personal Weather Station
Location: Amarillo, TX
Elevation: 3678 ft
Nearby Weather Stations

Elev 3678 ft 35.19 °N, 101.84 °W | Updated 5 seconds ago

Clear
Clear
57.6 °F
Feels Like 57.6 °F
N
10.7
Wind Variable Wind from NNW
Gusts 17.3 mph

Today
High -- | Low -- °F
--% Chance of Precip.
Yesterday
High -- | Low -- °F
Precip. -- in
7:42 AM 7:29 PM
First Quarter, 57% visible
Pressure 29.73 in
Visibility 10.0 miles
Clouds Clear
Dew Point 47 °F
Humidity 67%
Rainfall 0.00 in
Snow Depth Not available.
UV 0 out of 12
Pollen 9.10 out of 12
Air Quality Not available.
Flu Activity Not available.
METAR KAMA 020953Z AUTO 33020G28KT 10SM CLR 14/08 A2987 RMK AO2 PK WND 33028/0952 SLP067 T01390083

More Conditions Fewer Conditions

Pressure 29.73 in
Visibility 10.0 miles
Clouds Clear
Dew Point 47 °F
Humidity 67%
Rainfall 0.00 in
Snow Depth Not available.
UV 0 out of 12
Pollen 9.10 out of 12
Air Quality Not available.
Flu Activity Not available.
METAR KAMA 020953Z AUTO 33020G28KT 10SM CLR 14/08 A2987 RMK AO2 PK WND 33028/0952 SLP067 T01390083

More Conditions Fewer Conditions

10-Day Weather Forecast

Almanac

Astronomy

Oct. 02, 2014 Rise Set
Actual Time 7:42 AM CDT 7:29 PM CDT
Civil Twilight 7:17 AM CDT 7:55 PM CDT
Nautical Twilight 6:48 AM CDT 8:24 PM CDT
Astronomical Twilight 6:18 AM CDT 8:53 PM CDT
Moon 3:26 PM CDT 1:14 AM CDT
Length of Visible Light 12h 37m
Length of Day
11h 46m
Tomorrow will be 2m 11s shorter.
First Quarter, 57% of the Moon is Illuminated
Today
First Quarter
Oct 8
Full
Oct 15
Last Quarter
Oct 23
New
Oct 30
First Quarter

Today's Extremes

State Highs State Lows

Community

WunderPhotos

Upload Photos

1,758,209 photos uploaded!

WunderBlogs® & News

Nearby

Snow Depth

Station Depth Elevation
No new snow has been reported.

Earthquake Activity

City Distance Mag. Time & Date
No recent earthquake activity has been reported nearby.
Minimum magnitude displayed is 2.5.

Coastal Water Temperatures

Place Temperature
No Stations Reporting

Nearby Weather Stations